sensor_id;sensor_type;location;lat;lon;timestamp;P1;durP1;ratioP1;P2;durP2;ratioP2
11988;SDS011;6054;50.966;7.094;2023-08-12T00:01:59;28.10;;;16.10;;
11988;SDS011;6054;50.966;7.094;2023-08-12T00:04:26;26.42;;;16.35;;
11988;SDS011;6054;50.966;7.094;2023-08-12T00:06:52;21.30;;;16.77;;
11988;SDS011;6054;50.966;7.094;2023-08-12T00:09:19;27.73;;;16.80;;
11988;SDS011;6054;50.966;7.094;2023-08-12T00:11:46;23.23;;;15.02;;
11988;SDS011;6054;50.966;7.094;2023-08-12T00:14:14;24.15;;;16.02;;
11988;SDS011;6054;50.966;7.094;2023-08-12T00:16:41;21.85;;;15.77;;
11988;SDS011;6054;50.966;7.094;2023-08-12T00:19:07;24.05;;;16.75;;
11988;SDS011;6054;50.966;7.094;2023-08-12T00:21:34;22.80;;;16.48;;
11988;SDS011;6054;50.966;7.094;2023-08-12T00:24:01;25.63;;;16.23;;
11988;SDS011;6054;50.966;7.094;2023-08-12T00:26:28;24.90;;;16.83;;
11988;SDS011;6054;50.966;7.094;2023-08-12T00:28:54;21.70;;;15.63;;
11988;SDS011;6054;50.966;7.094;2023-08-12T00:31:23;21.58;;;16.27;;
11988;SDS011;6054;50.966;7.094;2023-08-12T00:33:49;26.15;;;16.05;;
11988;SDS011;6054;50.966;7.094;2023-08-12T00:36:16;23.38;;;16.27;;
11988;SDS011;6054;50.966;7.094;2023-08-12T00:38:43;22.48;;;16.33;;
11988;SDS011;6054;50.966;7.094;2023-08-12T00:41:09;20.65;;;15.73;;
11988;SDS011;6054;50.966;7.094;2023-08-12T00:43:36;21.27;;;15.32;;
11988;SDS011;6054;50.966;7.094;2023-08-12T00:46:03;19.90;;;14.77;;
11988;SDS011;6054;50.966;7.094;2023-08-12T00:48:32;18.35;;;14.30;;
11988;SDS011;6054;50.966;7.094;2023-08-12T00:50:59;19.67;;;15.18;;
11988;SDS011;6054;50.966;7.094;2023-08-12T00:53:25;47.45;;;18.58;;
11988;SDS011;6054;50.966;7.094;2023-08-12T00:55:53;18.75;;;15.75;;
11988;SDS011;6054;50.966;7.094;2023-08-12T00:58:20;16.35;;;13.48;;
11988;SDS011;6054;50.966;7.094;2023-08-12T01:00:47;25.45;;;16.45;;
11988;SDS011;6054;50.966;7.094;2023-08-12T01:03:14;27.55;;;16.88;;
11988;SDS011;6054;50.966;7.094;2023-08-12T01:05:43;23.25;;;15.70;;
11988;SDS011;6054;50.966;7.094;2023-08-12T01:08:10;27.23;;;15.75;;
11988;SDS011;6054;50.966;7.094;2023-08-12T01:10:37;23.48;;;15.60;;
11988;SDS011;6054;50.966;7.094;2023-08-12T01:13:09;20.00;;;14.27;;
11988;SDS011;6054;50.966;7.094;2023-08-12T01:15:45;23.58;;;14.32;;
11988;SDS011;6054;50.966;7.094;2023-08-12T01:18:15;35.70;;;17.42;;
11988;SDS011;6054;50.966;7.094;2023-08-12T01:20:45;25.15;;;15.38;;
11988;SDS011;6054;50.966;7.094;2023-08-12T01:23:14;27.15;;;14.15;;
11988;SDS011;6054;50.966;7.094;2023-08-12T01:25:41;19.95;;;14.07;;
11988;SDS011;6054;50.966;7.094;2023-08-12T01:28:08;18.75;;;13.85;;
11988;SDS011;6054;50.966;7.094;2023-08-12T01:30:35;24.75;;;14.60;;
11988;SDS011;6054;50.966;7.094;2023-08-12T01:33:07;18.55;;;13.48;;
11988;SDS011;6054;50.966;7.094;2023-08-12T01:35:39;16.98;;;12.20;;
11988;SDS011;6054;50.966;7.094;2023-08-12T01:38:10;22.95;;;13.38;;
11988;SDS011;6054;50.966;7.094;2023-08-12T01:40:39;14.65;;;11.32;;
11988;SDS011;6054;50.966;7.094;2023-08-12T01:43:07;18.20;;;10.93;;
11988;SDS011;6054;50.966;7.094;2023-08-12T01:45:34;14.65;;;11.10;;
11988;SDS011;6054;50.966;7.094;2023-08-12T01:48:01;20.95;;;12.63;;
11988;SDS011;6054;50.966;7.094;2023-08-12T01:50:28;18.05;;;12.70;;
11988;SDS011;6054;50.966;7.094;2023-08-12T01:52:55;15.40;;;12.32;;
11988;SDS011;6054;50.966;7.094;2023-08-12T01:55:23;16.15;;;12.27;;
11988;SDS011;6054;50.966;7.094;2023-08-12T01:57:51;15.85;;;11.48;;
11988;SDS011;6054;50.966;7.094;2023-08-12T02:00:17;16.92;;;12.13;;
11988;SDS011;6054;50.966;7.094;2023-08-12T02:02:44;15.38;;;11.73;;
11988;SDS011;6054;50.966;7.094;2023-08-12T02:05:12;17.85;;;11.70;;
11988;SDS011;6054;50.966;7.094;2023-08-12T02:07:39;15.38;;;11.80;;
11988;SDS011;6054;50.966;7.094;2023-08-12T02:10:06;17.40;;;11.77;;
11988;SDS011;6054;50.966;7.094;2023-08-12T02:12:33;20.75;;;12.02;;
11988;SDS011;6054;50.966;7.094;2023-08-12T02:15:01;19.17;;;12.70;;
11988;SDS011;6054;50.966;7.094;2023-08-12T02:17:28;17.80;;;11.80;;
11988;SDS011;6054;50.966;7.094;2023-08-12T02:19:54;17.08;;;11.13;;
11988;SDS011;6054;50.966;7.094;2023-08-12T02:22:23;24.17;;;11.35;;
11988;SDS011;6054;50.966;7.094;2023-08-12T02:24:49;18.02;;;11.07;;
11988;SDS011;6054;50.966;7.094;2023-08-12T02:27:16;14.80;;;11.55;;
11988;SDS011;6054;50.966;7.094;2023-08-12T02:29:44;17.73;;;12.20;;
11988;SDS011;6054;50.966;7.094;2023-08-12T02:32:12;15.80;;;10.55;;
11988;SDS011;6054;50.966;7.094;2023-08-12T02:34:38;16.55;;;10.70;;
11988;SDS011;6054;50.966;7.094;2023-08-12T02:37:05;22.45;;;11.57;;
11988;SDS011;6054;50.966;7.094;2023-08-12T02:39:32;17.90;;;10.80;;
11988;SDS011;6054;50.966;7.094;2023-08-12T02:41:59;16.88;;;9.88;;
11988;SDS011;6054;50.966;7.094;2023-08-12T02:44:25;18.40;;;9.80;;
11988;SDS011;6054;50.966;7.094;2023-08-12T02:46:52;13.23;;;9.35;;
11988;SDS011;6054;50.966;7.094;2023-08-12T02:49:20;13.27;;;9.32;;
11988;SDS011;6054;50.966;7.094;2023-08-12T02:51:47;12.93;;;8.80;;
11988;SDS011;6054;50.966;7.094;2023-08-12T02:54:14;10.18;;;9.15;;
11988;SDS011;6054;50.966;7.094;2023-08-12T02:56:40;12.15;;;8.68;;
11988;SDS011;6054;50.966;7.094;2023-08-12T02:59:07;10.50;;;7.97;;
11988;SDS011;6054;50.966;7.094;2023-08-12T03:01:34;14.18;;;10.05;;
11988;SDS011;6054;50.966;7.094;2023-08-12T03:04:01;15.65;;;8.38;;
11988;SDS011;6054;50.966;7.094;2023-08-12T03:06:29;11.82;;;8.18;;
11988;SDS011;6054;50.966;7.094;2023-08-12T03:08:55;9.60;;;7.90;;
11988;SDS011;6054;50.966;7.094;2023-08-12T03:11:22;18.08;;;8.55;;
11988;SDS011;6054;50.966;7.094;2023-08-12T03:13:49;13.18;;;7.43;;
11988;SDS011;6054;50.966;7.094;2023-08-12T03:16:16;10.10;;;8.05;;
11988;SDS011;6054;50.966;7.094;2023-08-12T03:18:42;13.13;;;8.50;;
11988;SDS011;6054;50.966;7.094;2023-08-12T03:21:09;12.20;;;7.72;;
11988;SDS011;6054;50.966;7.094;2023-08-12T03:23:37;11.30;;;7.68;;
11988;SDS011;6054;50.966;7.094;2023-08-12T03:26:04;11.93;;;7.97;;
11988;SDS011;6054;50.966;7.094;2023-08-12T03:28:31;12.05;;;7.85;;
11988;SDS011;6054;50.966;7.094;2023-08-12T03:30:58;12.90;;;7.47;;
11988;SDS011;6054;50.966;7.094;2023-08-12T03:33:25;9.60;;;7.30;;
11988;SDS011;6054;50.966;7.094;2023-08-12T03:35:51;8.73;;;6.90;;
11988;SDS011;6054;50.966;7.094;2023-08-12T03:38:18;8.15;;;6.95;;
11988;SDS011;6054;50.966;7.094;2023-08-12T03:40:46;8.18;;;6.50;;
11988;SDS011;6054;50.966;7.094;2023-08-12T03:43:13;8.32;;;6.68;;
11988;SDS011;6054;50.966;7.094;2023-08-12T03:45:40;8.68;;;6.72;;
11988;SDS011;6054;50.966;7.094;2023-08-12T03:48:07;8.13;;;6.53;;
11988;SDS011;6054;50.966;7.094;2023-08-12T03:50:34;7.93;;;6.35;;
11988;SDS011;6054;50.966;7.094;2023-08-12T03:53:01;9.95;;;7.13;;
11988;SDS011;6054;50.966;7.094;2023-08-12T03:55:29;10.68;;;6.30;;
11988;SDS011;6054;50.966;7.094;2023-08-12T03:57:58;9.43;;;7.13;;
11988;SDS011;6054;50.966;7.094;2023-08-12T04:00:24;6.57;;;5.82;;
11988;SDS011;6054;50.966;7.094;2023-08-12T04:02:51;7.85;;;5.95;;
11988;SDS011;6054;50.966;7.094;2023-08-12T04:05:18;9.02;;;5.72;;
11988;SDS011;6054;50.966;7.094;2023-08-12T04:07:45;7.28;;;5.80;;
11988;SDS011;6054;50.966;7.094;2023-08-12T04:10:11;8.32;;;5.72;;
11988;SDS011;6054;50.966;7.094;2023-08-12T04:12:39;6.57;;;5.90;;
11988;SDS011;6054;50.966;7.094;2023-08-12T04:15:08;8.02;;;5.57;;
11988;SDS011;6054;50.966;7.094;2023-08-12T04:17:36;7.05;;;5.53;;
11988;SDS011;6054;50.966;7.094;2023-08-12T04:20:05;5.75;;;4.88;;
11988;SDS011;6054;50.966;7.094;2023-08-12T04:22:32;6.88;;;5.82;;
11988;SDS011;6054;50.966;7.094;2023-08-12T04:24:59;8.05;;;5.18;;
11988;SDS011;6054;50.966;7.094;2023-08-12T04:27:26;8.35;;;5.47;;
11988;SDS011;6054;50.966;7.094;2023-08-12T04:29:53;7.75;;;4.82;;
11988;SDS011;6054;50.966;7.094;2023-08-12T04:32:21;6.45;;;4.78;;
11988;SDS011;6054;50.966;7.094;2023-08-12T04:34:47;6.50;;;4.57;;
11988;SDS011;6054;50.966;7.094;2023-08-12T04:37:14;7.43;;;4.80;;
11988;SDS011;6054;50.966;7.094;2023-08-12T04:39:41;6.60;;;5.15;;
11988;SDS011;6054;50.966;7.094;2023-08-12T04:42:08;6.95;;;5.18;;
11988;SDS011;6054;50.966;7.094;2023-08-12T04:44:35;7.50;;;5.20;;
11988;SDS011;6054;50.966;7.094;2023-08-12T04:47:02;6.50;;;4.97;;
11988;SDS011;6054;50.966;7.094;2023-08-12T04:49:30;7.70;;;4.90;;
11988;SDS011;6054;50.966;7.094;2023-08-12T04:51:57;9.05;;;4.93;;
11988;SDS011;6054;50.966;7.094;2023-08-12T04:54:23;11.02;;;5.43;;
11988;SDS011;6054;50.966;7.094;2023-08-12T04:56:50;6.03;;;5.43;;
11988;SDS011;6054;50.966;7.094;2023-08-12T04:59:17;6.15;;;5.45;;
11988;SDS011;6054;50.966;7.094;2023-08-12T05:01:44;11.80;;;5.40;;
11988;SDS011;6054;50.966;7.094;2023-08-12T05:04:10;6.28;;;5.22;;
11988;SDS011;6054;50.966;7.094;2023-08-12T05:06:38;6.15;;;5.40;;
11988;SDS011;6054;50.966;7.094;2023-08-12T05:09:05;7.20;;;5.30;;
11988;SDS011;6054;50.966;7.094;2023-08-12T05:11:33;7.30;;;5.35;;
11988;SDS011;6054;50.966;7.094;2023-08-12T05:14:00;10.70;;;5.40;;
11988;SDS011;6054;50.966;7.094;2023-08-12T05:16:26;7.57;;;5.80;;
11988;SDS011;6054;50.966;7.094;2023-08-12T05:18:54;7.15;;;5.30;;
11988;SDS011;6054;50.966;7.094;2023-08-12T05:21:20;5.80;;;5.30;;
11988;SDS011;6054;50.966;7.094;2023-08-12T05:23:49;5.63;;;5.03;;
11988;SDS011;6054;50.966;7.094;2023-08-12T05:26:16;6.50;;;5.13;;
11988;SDS011;6054;50.966;7.094;2023-08-12T05:28:42;7.53;;;4.82;;
11988;SDS011;6054;50.966;7.094;2023-08-12T05:31:09;6.15;;;4.70;;
11988;SDS011;6054;50.966;7.094;2023-08-12T05:33:36;7.40;;;5.10;;
11988;SDS011;6054;50.966;7.094;2023-08-12T05:36:03;5.05;;;4.57;;
11988;SDS011;6054;50.966;7.094;2023-08-12T05:38:30;5.28;;;4.78;;
11988;SDS011;6054;50.966;7.094;2023-08-12T05:40:58;6.05;;;4.78;;
11988;SDS011;6054;50.966;7.094;2023-08-12T05:43:24;5.85;;;4.45;;
11988;SDS011;6054;50.966;7.094;2023-08-12T05:45:51;6.07;;;4.57;;
11988;SDS011;6054;50.966;7.094;2023-08-12T05:48:18;4.70;;;4.25;;
11988;SDS011;6054;50.966;7.094;2023-08-12T05:50:44;6.60;;;4.55;;
11988;SDS011;6054;50.966;7.094;2023-08-12T05:53:11;5.60;;;5.00;;
11988;SDS011;6054;50.966;7.094;2023-08-12T05:55:38;5.88;;;4.88;;
11988;SDS011;6054;50.966;7.094;2023-08-12T05:58:06;5.35;;;4.40;;
11988;SDS011;6054;50.966;7.094;2023-08-12T06:00:33;5.97;;;4.50;;
11988;SDS011;6054;50.966;7.094;2023-08-12T06:03:00;5.07;;;4.38;;
11988;SDS011;6054;50.966;7.094;2023-08-12T06:05:27;8.38;;;5.07;;
11988;SDS011;6054;50.966;7.094;2023-08-12T06:07:54;6.00;;;4.60;;
11988;SDS011;6054;50.966;7.094;2023-08-12T06:10:20;6.53;;;4.53;;
11988;SDS011;6054;50.966;7.094;2023-08-12T06:12:47;7.30;;;5.05;;
11988;SDS011;6054;50.966;7.094;2023-08-12T06:15:18;6.20;;;4.75;;
11988;SDS011;6054;50.966;7.094;2023-08-12T06:17:45;7.15;;;4.75;;
11988;SDS011;6054;50.966;7.094;2023-08-12T06:20:12;7.47;;;5.18;;
11988;SDS011;6054;50.966;7.094;2023-08-12T06:22:39;8.27;;;5.20;;
11988;SDS011;6054;50.966;7.094;2023-08-12T06:25:05;6.00;;;5.40;;
11988;SDS011;6054;50.966;7.094;2023-08-12T06:27:33;9.73;;;5.32;;
11988;SDS011;6054;50.966;7.094;2023-08-12T06:29:59;8.07;;;5.05;;
11988;SDS011;6054;50.966;7.094;2023-08-12T06:32:27;7.18;;;5.80;;
11988;SDS011;6054;50.966;7.094;2023-08-12T06:34:54;5.95;;;4.93;;
11988;SDS011;6054;50.966;7.094;2023-08-12T06:37:21;11.93;;;4.30;;
11988;SDS011;6054;50.966;7.094;2023-08-12T06:39:48;5.50;;;4.32;;
11988;SDS011;6054;50.966;7.094;2023-08-12T06:42:15;8.35;;;4.55;;
11988;SDS011;6054;50.966;7.094;2023-08-12T06:44:42;4.72;;;3.80;;
11988;SDS011;6054;50.966;7.094;2023-08-12T06:47:09;5.78;;;4.00;;
11988;SDS011;6054;50.966;7.094;2023-08-12T06:49:37;7.88;;;4.43;;
11988;SDS011;6054;50.966;7.094;2023-08-12T06:52:04;5.68;;;4.45;;
11988;SDS011;6054;50.966;7.094;2023-08-12T06:54:30;7.22;;;4.50;;
11988;SDS011;6054;50.966;7.094;2023-08-12T06:56:56;5.68;;;4.07;;
11988;SDS011;6054;50.966;7.094;2023-08-12T06:59:23;6.97;;;5.32;;
11988;SDS011;6054;50.966;7.094;2023-08-12T07:01:50;6.75;;;4.90;;
11988;SDS011;6054;50.966;7.094;2023-08-12T07:04:16;6.55;;;5.13;;
11988;SDS011;6054;50.966;7.094;2023-08-12T07:06:45;5.28;;;4.32;;
11988;SDS011;6054;50.966;7.094;2023-08-12T07:09:11;5.57;;;4.38;;
11988;SDS011;6054;50.966;7.094;2023-08-12T07:11:38;5.30;;;4.50;;
11988;SDS011;6054;50.966;7.094;2023-08-12T07:14:06;5.15;;;4.53;;
11988;SDS011;6054;50.966;7.094;2023-08-12T07:16:33;6.65;;;4.93;;
11988;SDS011;6054;50.966;7.094;2023-08-12T07:19:00;5.03;;;4.63;;
11988;SDS011;6054;50.966;7.094;2023-08-12T07:21:27;6.97;;;4.70;;
11988;SDS011;6054;50.966;7.094;2023-08-12T07:23:55;8.68;;;5.35;;
11988;SDS011;6054;50.966;7.094;2023-08-12T07:26:22;6.40;;;4.80;;
11988;SDS011;6054;50.966;7.094;2023-08-12T07:28:48;6.68;;;4.55;;
11988;SDS011;6054;50.966;7.094;2023-08-12T07:31:15;7.78;;;6.07;;
11988;SDS011;6054;50.966;7.094;2023-08-12T07:33:42;6.60;;;5.25;;
11988;SDS011;6054;50.966;7.094;2023-08-12T07:36:09;6.95;;;4.78;;
11988;SDS011;6054;50.966;7.094;2023-08-12T07:38:35;6.50;;;5.10;;
11988;SDS011;6054;50.966;7.094;2023-08-12T07:41:03;5.80;;;4.50;;
11988;SDS011;6054;50.966;7.094;2023-08-12T07:43:30;7.50;;;5.53;;
11988;SDS011;6054;50.966;7.094;2023-08-12T07:45:57;8.18;;;4.90;;
11988;SDS011;6054;50.966;7.094;2023-08-12T07:48:24;5.53;;;4.85;;
11988;SDS011;6054;50.966;7.094;2023-08-12T07:50:54;5.00;;;4.60;;
11988;SDS011;6054;50.966;7.094;2023-08-12T07:53:22;5.88;;;4.00;;
11988;SDS011;6054;50.966;7.094;2023-08-12T07:55:49;4.13;;;3.40;;
11988;SDS011;6054;50.966;7.094;2023-08-12T07:58:17;4.38;;;3.30;;
11988;SDS011;6054;50.966;7.094;2023-08-12T08:00:44;5.82;;;3.75;;
11988;SDS011;6054;50.966;7.094;2023-08-12T08:03:11;3.90;;;3.00;;
11988;SDS011;6054;50.966;7.094;2023-08-12T08:05:39;5.63;;;3.22;;
11988;SDS011;6054;50.966;7.094;2023-08-12T08:08:06;3.78;;;3.08;;
11988;SDS011;6054;50.966;7.094;2023-08-12T08:10:33;4.35;;;2.70;;
11988;SDS011;6054;50.966;7.094;2023-08-12T08:12:59;3.33;;;2.92;;
11988;SDS011;6054;50.966;7.094;2023-08-12T08:15:28;5.00;;;3.20;;
11988;SDS011;6054;50.966;7.094;2023-08-12T08:17:54;2.55;;;2.35;;
11988;SDS011;6054;50.966;7.094;2023-08-12T08:20:21;3.13;;;2.83;;
11988;SDS011;6054;50.966;7.094;2023-08-12T08:22:48;4.07;;;2.75;;
11988;SDS011;6054;50.966;7.094;2023-08-12T08:25:15;4.78;;;2.53;;
11988;SDS011;6054;50.966;7.094;2023-08-12T08:27:41;3.45;;;2.40;;
11988;SDS011;6054;50.966;7.094;2023-08-12T08:30:09;5.47;;;2.83;;
11988;SDS011;6054;50.966;7.094;2023-08-12T08:32:37;3.50;;;2.30;;
11988;SDS011;6054;50.966;7.094;2023-08-12T08:35:04;2.28;;;2.10;;
11988;SDS011;6054;50.966;7.094;2023-08-12T08:37:32;2.55;;;2.35;;
11988;SDS011;6054;50.966;7.094;2023-08-12T08:39:58;3.55;;;2.50;;
11988;SDS011;6054;50.966;7.094;2023-08-12T08:42:25;5.70;;;2.70;;
11988;SDS011;6054;50.966;7.094;2023-08-12T08:44:52;4.68;;;2.63;;
11988;SDS011;6054;50.966;7.094;2023-08-12T08:47:23;3.63;;;2.28;;
11988;SDS011;6054;50.966;7.094;2023-08-12T08:49:53;2.75;;;2.38;;
11988;SDS011;6054;50.966;7.094;2023-08-12T08:52:21;4.05;;;2.67;;
11988;SDS011;6054;50.966;7.094;2023-08-12T08:54:49;2.50;;;2.30;;
11988;SDS011;6054;50.966;7.094;2023-08-12T08:57:16;4.93;;;2.63;;
11988;SDS011;6054;50.966;7.094;2023-08-12T08:59:43;4.40;;;2.17;;
11988;SDS011;6054;50.966;7.094;2023-08-12T09:02:11;4.80;;;2.20;;
11988;SDS011;6054;50.966;7.094;2023-08-12T09:04:42;3.20;;;2.50;;
11988;SDS011;6054;50.966;7.094;2023-08-12T09:07:11;4.15;;;2.22;;
11988;SDS011;6054;50.966;7.094;2023-08-12T09:09:39;3.05;;;2.42;;
11988;SDS011;6054;50.966;7.094;2023-08-12T09:12:10;3.20;;;2.10;;
11988;SDS011;6054;50.966;7.094;2023-08-12T09:14:40;2.90;;;2.45;;
11988;SDS011;6054;50.966;7.094;2023-08-12T09:17:07;3.00;;;2.47;;
11988;SDS011;6054;50.966;7.094;2023-08-12T09:19:34;2.42;;;2.22;;
11988;SDS011;6054;50.966;7.094;2023-08-12T09:22:02;5.30;;;2.45;;
11988;SDS011;6054;50.966;7.094;2023-08-12T09:24:30;2.28;;;2.10;;
11988;SDS011;6054;50.966;7.094;2023-08-12T09:26:57;4.85;;;2.10;;
11988;SDS011;6054;50.966;7.094;2023-08-12T09:29:26;3.58;;;2.20;;
11988;SDS011;6054;50.966;7.094;2023-08-12T09:32:09;2.80;;;1.90;;
11988;SDS011;6054;50.966;7.094;2023-08-12T09:34:36;3.40;;;1.88;;
11988;SDS011;6054;50.966;7.094;2023-08-12T09:39:47;1.80;;;1.70;;
11988;SDS011;6054;50.966;7.094;2023-08-12T09:42:14;3.42;;;1.90;;
11988;SDS011;6054;50.966;7.094;2023-08-12T09:44:42;2.25;;;1.90;;
11988;SDS011;6054;50.966;7.094;2023-08-12T09:47:12;3.15;;;1.80;;
11988;SDS011;6054;50.966;7.094;2023-08-12T09:49:39;3.75;;;1.80;;
11988;SDS011;6054;50.966;7.094;2023-08-12T09:52:12;5.03;;;1.70;;
11988;SDS011;6054;50.966;7.094;2023-08-12T09:54:39;3.13;;;1.85;;
11988;SDS011;6054;50.966;7.094;2023-08-12T09:57:09;2.20;;;2.00;;
11988;SDS011;6054;50.966;7.094;2023-08-12T09:59:39;2.25;;;1.60;;
11988;SDS011;6054;50.966;7.094;2023-08-12T10:02:09;2.03;;;1.90;;
11988;SDS011;6054;50.966;7.094;2023-08-12T10:04:44;1.83;;;1.73;;
11988;SDS011;6054;50.966;7.094;2023-08-12T10:07:15;2.35;;;1.98;;
11988;SDS011;6054;50.966;7.094;2023-08-12T10:09:44;2.25;;;1.70;;
11988;SDS011;6054;50.966;7.094;2023-08-12T10:12:12;2.55;;;1.70;;
11988;SDS011;6054;50.966;7.094;2023-08-12T10:14:40;2.63;;;1.83;;
11988;SDS011;6054;50.966;7.094;2023-08-12T10:17:10;2.85;;;1.70;;
11988;SDS011;6054;50.966;7.094;2023-08-12T10:19:44;2.30;;;1.55;;
11988;SDS011;6054;50.966;7.094;2023-08-12T10:22:11;2.53;;;1.60;;
11988;SDS011;6054;50.966;7.094;2023-08-12T10:24:39;2.75;;;1.70;;
11988;SDS011;6054;50.966;7.094;2023-08-12T10:27:09;2.85;;;1.98;;
11988;SDS011;6054;50.966;7.094;2023-08-12T10:29:39;1.95;;;1.85;;
11988;SDS011;6054;50.966;7.094;2023-08-12T10:32:08;2.10;;;2.00;;
11988;SDS011;6054;50.966;7.094;2023-08-12T10:34:35;1.80;;;1.70;;
11988;SDS011;6054;50.966;7.094;2023-08-12T10:37:12;2.55;;;1.92;;
11988;SDS011;6054;50.966;7.094;2023-08-12T10:39:40;2.30;;;2.10;;
11988;SDS011;6054;50.966;7.094;2023-08-12T10:42:07;2.92;;;2.08;;
11988;SDS011;6054;50.966;7.094;2023-08-12T10:44:39;2.47;;;2.28;;
11988;SDS011;6054;50.966;7.094;2023-08-12T10:47:15;2.83;;;2.03;;
11988;SDS011;6054;50.966;7.094;2023-08-12T10:49:42;2.97;;;1.63;;
11988;SDS011;6054;50.966;7.094;2023-08-12T10:52:19;4.72;;;2.08;;
11988;SDS011;6054;50.966;7.094;2023-08-12T10:54:53;1.92;;;1.83;;
11988;SDS011;6054;50.966;7.094;2023-08-12T10:57:28;2.20;;;2.03;;
11988;SDS011;6054;50.966;7.094;2023-08-12T11:00:05;4.85;;;2.13;;
11988;SDS011;6054;50.966;7.094;2023-08-12T11:02:48;2.05;;;1.77;;
11988;SDS011;6054;50.966;7.094;2023-08-12T11:05:16;4.25;;;2.00;;
11988;SDS011;6054;50.966;7.094;2023-08-12T11:07:46;2.75;;;2.20;;
11988;SDS011;6054;50.966;7.094;2023-08-12T11:10:15;2.00;;;1.85;;
11988;SDS011;6054;50.966;7.094;2023-08-12T11:12:47;2.70;;;2.22;;
11988;SDS011;6054;50.966;7.094;2023-08-12T11:15:30;3.30;;;2.20;;
11988;SDS011;6054;50.966;7.094;2023-08-12T11:17:59;4.57;;;2.17;;
11988;SDS011;6054;50.966;7.094;2023-08-12T11:20:28;2.55;;;2.05;;
11988;SDS011;6054;50.966;7.094;2023-08-12T11:22:55;2.53;;;2.17;;
11988;SDS011;6054;50.966;7.094;2023-08-12T11:25:23;2.58;;;2.17;;
11988;SDS011;6054;50.966;7.094;2023-08-12T11:27:53;2.95;;;2.13;;
11988;SDS011;6054;50.966;7.094;2023-08-12T11:30:20;3.45;;;2.15;;
11988;SDS011;6054;50.966;7.094;2023-08-12T11:32:52;2.10;;;2.00;;
11988;SDS011;6054;50.966;7.094;2023-08-12T11:35:20;2.67;;;2.38;;
11988;SDS011;6054;50.966;7.094;2023-08-12T11:37:49;2.05;;;1.88;;
11988;SDS011;6054;50.966;7.094;2023-08-12T11:40:18;3.83;;;2.10;;
11988;SDS011;6054;50.966;7.094;2023-08-12T11:42:46;1.75;;;1.65;;
11988;SDS011;6054;50.966;7.094;2023-08-12T11:45:14;3.22;;;1.95;;
11988;SDS011;6054;50.966;7.094;2023-08-12T11:47:42;2.17;;;2.00;;
11988;SDS011;6054;50.966;7.094;2023-08-12T11:50:11;3.85;;;2.88;;
11988;SDS011;6054;50.966;7.094;2023-08-12T11:52:39;2.50;;;1.98;;
11988;SDS011;6054;50.966;7.094;2023-08-12T11:55:09;2.65;;;1.70;;
11988;SDS011;6054;50.966;7.094;2023-08-12T11:57:36;1.80;;;1.65;;
11988;SDS011;6054;50.966;7.094;2023-08-12T12:00:10;3.15;;;2.17;;
11988;SDS011;6054;50.966;7.094;2023-08-12T12:02:45;3.20;;;2.22;;
11988;SDS011;6054;50.966;7.094;2023-08-12T12:05:17;3.13;;;1.80;;
11988;SDS011;6054;50.966;7.094;2023-08-12T12:07:50;2.55;;;2.08;;
11988;SDS011;6054;50.966;7.094;2023-08-12T12:10:18;2.15;;;1.90;;
11988;SDS011;6054;50.966;7.094;2023-08-12T12:12:46;3.20;;;2.00;;
11988;SDS011;6054;50.966;7.094;2023-08-12T12:15:14;3.13;;;1.75;;
11988;SDS011;6054;50.966;7.094;2023-08-12T12:17:41;3.80;;;1.80;;
11988;SDS011;6054;50.966;7.094;2023-08-12T12:20:08;3.20;;;1.63;;
11988;SDS011;6054;50.966;7.094;2023-08-12T12:22:38;2.97;;;2.00;;
11988;SDS011;6054;50.966;7.094;2023-08-12T12:25:09;3.65;;;1.88;;
11988;SDS011;6054;50.966;7.094;2023-08-12T12:27:40;4.60;;;2.05;;
11988;SDS011;6054;50.966;7.094;2023-08-12T12:30:08;4.57;;;2.10;;
11988;SDS011;6054;50.966;7.094;2023-08-12T12:32:38;6.05;;;2.15;;
11988;SDS011;6054;50.966;7.094;2023-08-12T12:35:08;1.88;;;1.70;;
11988;SDS011;6054;50.966;7.094;2023-08-12T12:37:42;4.25;;;2.17;;
11988;SDS011;6054;50.966;7.094;2023-08-12T12:40:09;4.70;;;1.73;;
11988;SDS011;6054;50.966;7.094;2023-08-12T12:42:37;3.85;;;1.88;;
11988;SDS011;6054;50.966;7.094;2023-08-12T12:45:08;1.88;;;1.70;;
11988;SDS011;6054;50.966;7.094;2023-08-12T12:47:35;2.42;;;1.83;;
11988;SDS011;6054;50.966;7.094;2023-08-12T12:50:02;1.52;;;1.42;;
11988;SDS011;6054;50.966;7.094;2023-08-12T12:52:37;1.67;;;1.35;;
11988;SDS011;6054;50.966;7.094;2023-08-12T12:55:11;1.52;;;1.25;;
11988;SDS011;6054;50.966;7.094;2023-08-12T12:57:40;1.88;;;1.77;;
11988;SDS011;6054;50.966;7.094;2023-08-12T13:00:10;1.02;;;1.02;;
11988;SDS011;6054;50.966;7.094;2023-08-12T13:02:41;3.35;;;1.45;;
11988;SDS011;6054;50.966;7.094;2023-08-12T13:05:08;1.85;;;1.33;;
11988;SDS011;6054;50.966;7.094;2023-08-12T13:07:35;1.58;;;1.00;;
11988;SDS011;6054;50.966;7.094;2023-08-12T13:10:02;0.90;;;0.90;;
11988;SDS011;6054;50.966;7.094;2023-08-12T13:12:32;2.13;;;0.98;;
11988;SDS011;6054;50.966;7.094;2023-08-12T13:15:02;1.00;;;0.95;;
11988;SDS011;6054;50.966;7.094;2023-08-12T13:17:31;1.25;;;1.25;;
11988;SDS011;6054;50.966;7.094;2023-08-12T13:20:01;1.58;;;1.38;;
11988;SDS011;6054;50.966;7.094;2023-08-12T13:22:29;3.55;;;1.40;;
11988;SDS011;6054;50.966;7.094;2023-08-12T13:24:55;1.70;;;1.20;;
11988;SDS011;6054;50.966;7.094;2023-08-12T13:27:28;1.92;;;1.50;;
11988;SDS011;6054;50.966;7.094;2023-08-12T13:29:59;1.80;;;1.70;;
11988;SDS011;6054;50.966;7.094;2023-08-12T13:32:32;1.48;;;1.30;;
11988;SDS011;6054;50.966;7.094;2023-08-12T13:35:00;2.22;;;1.50;;
11988;SDS011;6054;50.966;7.094;2023-08-12T13:37:26;3.05;;;1.40;;
11988;SDS011;6054;50.966;7.094;2023-08-12T13:39:53;1.00;;;1.00;;
11988;SDS011;6054;50.966;7.094;2023-08-12T13:42:20;0.80;;;0.80;;
11988;SDS011;6054;50.966;7.094;2023-08-12T13:44:48;0.80;;;0.80;;
11988;SDS011;6054;50.966;7.094;2023-08-12T13:47:15;0.95;;;0.93;;
11988;SDS011;6054;50.966;7.094;2023-08-12T13:49:42;1.20;;;0.98;;
11988;SDS011;6054;50.966;7.094;2023-08-12T13:52:09;1.70;;;0.88;;
11988;SDS011;6054;50.966;7.094;2023-08-12T13:54:35;0.85;;;0.85;;
11988;SDS011;6054;50.966;7.094;2023-08-12T13:57:02;0.90;;;0.90;;
11988;SDS011;6054;50.966;7.094;2023-08-12T13:59:32;2.50;;;0.98;;
11988;SDS011;6054;50.966;7.094;2023-08-12T14:02:00;1.05;;;1.00;;
11988;SDS011;6054;50.966;7.094;2023-08-12T14:04:28;1.00;;;1.00;;
11988;SDS011;6054;50.966;7.094;2023-08-12T14:06:54;0.80;;;0.80;;
11988;SDS011;6054;50.966;7.094;2023-08-12T14:09:21;0.95;;;0.95;;
11988;SDS011;6054;50.966;7.094;2023-08-12T14:11:48;0.95;;;0.95;;
11988;SDS011;6054;50.966;7.094;2023-08-12T14:14:15;0.95;;;0.95;;
11988;SDS011;6054;50.966;7.094;2023-08-12T14:16:42;0.90;;;0.90;;
11988;SDS011;6054;50.966;7.094;2023-08-12T14:19:10;1.75;;;1.20;;
11988;SDS011;6054;50.966;7.094;2023-08-12T14:21:39;0.80;;;0.80;;
11988;SDS011;6054;50.966;7.094;2023-08-12T14:24:05;0.80;;;0.80;;
11988;SDS011;6054;50.966;7.094;2023-08-12T14:26:32;0.90;;;0.90;;
11988;SDS011;6054;50.966;7.094;2023-08-12T14:28:59;1.05;;;0.95;;
11988;SDS011;6054;50.966;7.094;2023-08-12T14:31:26;0.90;;;0.90;;
11988;SDS011;6054;50.966;7.094;2023-08-12T14:33:53;1.20;;;1.00;;
11988;SDS011;6054;50.966;7.094;2023-08-12T14:36:21;0.70;;;0.70;;
11988;SDS011;6054;50.966;7.094;2023-08-12T14:38:48;0.73;;;0.73;;
11988;SDS011;6054;50.966;7.094;2023-08-12T14:41:15;0.70;;;0.70;;
11988;SDS011;6054;50.966;7.094;2023-08-12T14:43:42;0.73;;;0.70;;
11988;SDS011;6054;50.966;7.094;2023-08-12T14:46:09;1.98;;;0.73;;
11988;SDS011;6054;50.966;7.094;2023-08-12T14:48:36;0.70;;;0.70;;
11988;SDS011;6054;50.966;7.094;2023-08-12T14:51:02;0.73;;;0.73;;
11988;SDS011;6054;50.966;7.094;2023-08-12T14:53:31;2.05;;;0.80;;
11988;SDS011;6054;50.966;7.094;2023-08-12T14:55:57;0.60;;;0.60;;
11988;SDS011;6054;50.966;7.094;2023-08-12T14:58:25;0.60;;;0.60;;
11988;SDS011;6054;50.966;7.094;2023-08-12T15:00:52;0.85;;;0.82;;
11988;SDS011;6054;50.966;7.094;2023-08-12T15:03:19;0.60;;;0.60;;